Time;durP1;ratioP1;P1;durP2;ratioP2;P2;SDS_P1;SDS_P2;PMS_P1;PMS_P2;Temp;Humidity;BMP_temperature;BMP_pressure;BME280_temperature;BME280_humidity;BME280_pressure;Samples;Min_cycle;Max_cycle;Signal;HPM_P1;HPM_P2
2022/04/26 03:37:26;;;;;;;36.75;16.92;;;7.70;99.90;;;;;;5072852;28;20314;-82
2022/04/26 03:39:52;;;;;;;32.67;17.90;;;7.70;99.90;;;;;;5089384;28;20032;-82
2022/04/26 03:42:18;;;;;;;35.22;17.45;;;7.80;99.90;;;;;;5089410;28;20036;-84
2022/04/26 03:44:44;;;;;;;31.67;17.50;;;7.80;99.90;;;;;;5068898;28;20034;-84
2022/04/26 03:47:09;;;;;;;32.72;17.75;;;7.80;99.90;;;;;;5081523;28;20121;-84
2022/04/26 03:49:35;;;;;;;31.67;17.50;;;7.80;99.90;;;;;;5079442;28;20036;-83
2022/04/26 03:52:02;;;;;;;39.92;19.73;;;7.70;99.90;;;;;;5061758;28;20021;-86
2022/04/26 03:54:28;;;;;;;35.60;19.42;;;7.70;99.90;;;;;;5079227;28;20085;-84
2022/04/26 03:56:54;;;;;;;33.42;16.85;;;7.70;99.90;;;;;;5063206;28;20029;-85
2022/04/26 03:59:20;;;;;;;36.78;19.23;;;7.70;99.90;;;;;;5086183;28;20020;-82
2022/04/26 04:01:47;;;;;;;36.30;18.33;;;7.60;99.90;;;;;;5065656;28;20036;-84
2022/04/26 04:04:13;;;;;;;34.00;17.92;;;7.60;99.90;;;;;;5071262;28;20035;-83
2022/04/26 04:06:40;;;;;;;33.03;17.77;;;7.60;99.90;;;;;;5096020;28;20089;-84
2022/04/26 04:09:06;;;;;;;37.05;17.38;;;7.70;99.90;;;;;;5095074;28;20024;-84
2022/04/26 04:11:31;;;;;;;28.88;17.05;;;7.70;99.90;;;;;;5094229;28;20060;-83
2022/04/26 04:13:57;;;;;;;34.05;18.55;;;7.70;99.90;;;;;;5080296;28;20032;-82
2022/04/26 04:16:23;;;;;;;32.15;17.42;;;7.70;99.90;;;;;;5082523;28;20090;-84
2022/04/26 04:21:33;;;;;;;35.60;18.20;;;7.80;99.90;;;;;;5093283;28;20027;-83
2022/04/26 04:23:59;;;;;;;39.75;22.42;;;7.80;99.90;;;;;;5079370;28;20021;-81
2022/04/26 04:26:25;;;;;;;37.25;17.88;;;7.90;99.90;;;;;;5096884;28;20012;-80
2022/04/26 04:28:51;;;;;;;32.65;16.33;;;8.00;99.90;;;;;;5097388;28;20043;-79
2022/04/26 04:31:17;;;;;;;31.38;15.70;;;8.10;99.90;;;;;;5076780;28;20017;-82
2022/04/26 04:33:44;;;;;;;28.92;16.55;;;8.00;99.90;;;;;;5097197;28;20044;-80
2022/04/26 04:36:11;;;;;;;30.27;16.67;;;8.00;99.90;;;;;;5097357;28;20051;-82
2022/04/26 04:38:37;;;;;;;31.17;15.30;;;8.10;99.90;;;;;;5091886;28;20029;-83
2022/04/26 04:41:04;;;;;;;28.48;16.15;;;8.10;99.90;;;;;;5086522;28;20043;-83
2022/04/26 04:43:30;;;;;;;30.45;16.45;;;8.20;99.90;;;;;;5063993;28;20028;-82
2022/04/26 04:45:56;;;;;;;30.15;16.75;;;8.20;99.90;;;;;;5083357;28;20028;-83
2022/04/26 04:48:22;;;;;;;36.80;16.92;;;8.20;99.90;;;;;;5071838;28;20464;-85
2022/04/26 04:50:48;;;;;;;31.63;17.35;;;8.30;99.90;;;;;;5081624;28;20028;-84
2022/04/26 04:53:13;;;;;;;30.20;17.00;;;8.30;99.90;;;;;;5082666;28;20033;-84
2022/04/26 04:55:40;;;;;;;33.28;17.33;;;8.40;99.90;;;;;;5080171;28;20016;-85
2022/04/26 04:58:06;;;;;;;33.10;16.92;;;8.40;99.90;;;;;;5080705;28;20472;-87
2022/04/26 05:00:33;;;;;;;29.85;18.20;;;8.50;99.90;;;;;;5081616;28;20020;-82
2022/04/26 05:02:59;;;;;;;32.28;15.98;;;8.60;99.90;;;;;;5080467;28;20106;-82
2022/04/26 05:05:25;;;;;;;26.25;15.82;;;8.80;99.90;;;;;;5081409;28;20032;-81
2022/04/26 05:07:52;;;;;;;28.63;16.17;;;9.00;99.90;;;;;;5081839;28;20104;-83
2022/04/26 05:10:18;;;;;;;29.08;15.50;;;9.20;99.90;;;;;;5078542;28;20028;-83
2022/04/26 05:12:44;;;;;;;29.20;15.60;;;9.40;99.90;;;;;;5080588;28;20107;-84
2022/04/26 05:15:10;;;;;;;25.83;15.40;;;9.60;99.90;;;;;;5089973;28;20032;-83
2022/04/26 05:17:36;;;;;;;26.92;15.18;;;9.70;99.90;;;;;;5072703;28;20035;-84
2022/04/26 05:20:03;;;;;;;30.38;16.52;;;9.90;99.90;;;;;;5081045;28;20024;-83
2022/04/26 05:22:29;;;;;;;27.95;15.98;;;10.10;99.90;;;;;;5063631;28;20017;-85
2022/04/26 05:24:56;;;;;;;26.00;14.90;;;10.20;99.90;;;;;;5082822;28;20062;-84
2022/04/26 05:27:28;;;;;;;26.70;14.98;;;10.30;99.90;;;;;;5081489;28;20021;-83
2022/04/26 05:29:54;;;;;;;27.48;15.70;;;10.40;99.90;;;;;;5080287;28;20406;-81
2022/04/26 05:32:25;;;;;;;25.67;14.43;;;10.40;99.90;;;;;;5068507;28;20111;-84
2022/04/26 05:34:59;;;;;;;25.67;14.57;;;10.40;99.90;;;;;;5071603;28;20078;-85
2022/04/26 05:37:26;;;;;;;25.23;15.32;;;10.40;99.90;;;;;;5053417;28;20020;-85
2022/04/26 05:39:51;;;;;;;30.45;15.50;;;10.40;99.90;;;;;;5056155;28;20103;-84
2022/04/26 05:42:19;;;;;;;24.10;14.90;;;10.50;99.90;;;;;;5073533;28;20063;-83
2022/04/26 05:44:44;;;;;;;30.17;14.95;;;10.60;99.90;;;;;;5067990;28;20035;-85
2022/04/26 05:47:10;;;;;;;29.45;15.05;;;10.70;99.90;;;;;;5077060;28;20033;-86
2022/04/26 05:49:36;;;;;;;26.40;14.18;;;10.80;99.90;;;;;;5088162;28;20027;-86
2022/04/26 05:52:05;;;;;;;25.27;14.30;;;10.80;99.90;;;;;;5101530;28;20032;-85
2022/04/26 05:54:31;;;;;;;24.90;13.57;;;10.80;99.90;;;;;;5077131;28;20040;-86
2022/04/26 05:56:58;;;;;;;24.73;15.10;;;10.80;99.90;;;;;;5089926;28;20034;-86
2022/04/26 05:59:24;;;;;;;27.50;15.05;;;10.90;99.90;;;;;;5117331;28;20046;-83
2022/04/26 06:01:51;;;;;;;27.20;14.80;;;11.00;99.90;;;;;;5121324;28;20050;-82
2022/04/26 06:04:17;;;;;;;25.83;15.07;;;11.00;99.90;;;;;;5103341;28;20018;-83
2022/04/26 06:06:43;;;;;;;28.95;16.08;;;11.10;99.90;;;;;;5103498;28;20004;-83
2022/04/26 06:09:09;;;;;;;25.75;15.10;;;11.10;99.90;;;;;;5103190;28;20012;-82
2022/04/26 06:11:36;;;;;;;30.63;16.73;;;11.10;99.90;;;;;;5102031;28;20075;-84
2022/04/26 06:14:02;;;;;;;26.08;15.65;;;11.30;99.90;;;;;;5093906;28;20020;-83
2022/04/26 06:16:29;;;;;;;27.35;16.15;;;11.40;99.90;;;;;;5094005;28;20032;-84
2022/04/26 06:18:56;;;;;;;28.73;15.80;;;11.40;99.90;;;;;;5093729;28;20044;-83
2022/04/26 06:21:22;;;;;;;25.15;15.35;;;11.50;99.90;;;;;;5076013;28;20040;-85
2022/04/26 06:23:48;;;;;;;28.83;15.38;;;11.50;99.90;;;;;;5093109;28;20073;-85
2022/04/26 06:26:14;;;;;;;25.27;15.50;;;11.50;99.90;;;;;;5093074;28;20035;-85
2022/04/26 06:28:40;;;;;;;28.08;16.17;;;11.50;99.90;;;;;;5075891;28;20056;-84
2022/04/26 06:31:05;;;;;;;26.98;15.23;;;11.60;99.90;;;;;;5086576;22;20049;-82
2022/04/26 06:33:33;;;;;;;27.40;16.30;;;11.70;99.90;;;;;;5040993;28;20036;-80
2022/04/26 06:35:59;;;;;;;25.05;14.55;;;11.70;99.90;;;;;;5025844;28;20029;-79
2022/04/26 06:38:25;;;;;;;28.67;15.75;;;11.90;99.90;;;;;;5045622;28;20034;-78
2022/04/26 06:40:52;;;;;;;29.27;16.13;;;12.00;99.90;;;;;;5030742;28;20101;-81
2022/04/26 06:43:18;;;;;;;26.38;15.07;;;12.10;99.90;;;;;;5042604;28;20104;-80
2022/04/26 06:45:46;;;;;;;25.33;15.15;;;12.10;99.90;;;;;;5041963;28;20197;-79
2022/04/26 06:48:13;;;;;;;27.52;16.45;;;12.00;99.90;;;;;;5046935;28;20029;-82
2022/04/26 06:50:38;;;;;;;26.17;15.68;;;11.90;99.90;;;;;;5032730;28;20032;-80
2022/04/26 06:53:05;;;;;;;22.25;13.90;;;11.90;99.90;;;;;;5015524;28;20439;-80
2022/04/26 06:55:31;;;;;;;25.65;14.40;;;12.00;99.90;;;;;;5017415;28;20068;-80
2022/04/26 06:57:57;;;;;;;27.63;15.25;;;12.00;99.90;;;;;;5036211;28;20014;-82
2022/04/26 07:00:23;;;;;;;25.80;15.25;;;12.00;99.90;;;;;;5043822;28;20037;-80
2022/04/26 07:02:49;;;;;;;24.95;15.25;;;12.00;99.90;;;;;;5053426;28;20393;-81
2022/04/26 07:05:15;;;;;;;23.60;14.93;;;12.00;99.90;;;;;;5067680;28;20033;-81
2022/04/26 07:07:41;;;;;;;21.98;14.27;;;11.90;99.90;;;;;;5024688;28;20067;-81
2022/04/26 07:10:08;;;;;;;26.25;14.63;;;12.10;99.90;;;;;;5045903;28;20086;-81
2022/04/26 07:12:34;;;;;;;28.42;16.23;;;12.10;99.90;;;;;;5070517;28;20052;-81
2022/04/26 07:15:01;;;;;;;24.60;15.07;;;12.20;99.90;;;;;;5066001;28;20028;-81
2022/04/26 07:17:27;;;;;;;25.55;15.23;;;12.10;99.90;;;;;;5060920;28;20028;-82
2022/04/26 07:19:52;;;;;;;26.60;14.90;;;12.20;99.90;;;;;;5051548;28;20029;-80
2022/04/26 07:22:18;;;;;;;27.13;15.02;;;12.20;99.90;;;;;;5045547;28;20013;-78
2022/04/26 07:24:44;;;;;;;24.67;14.00;;;12.10;99.90;;;;;;5042831;28;20064;-81
2022/04/26 07:27:11;;;;;;;27.63;15.25;;;12.10;99.90;;;;;;5044613;28;20022;-83
2022/04/26 07:29:41;;;;;;;24.63;15.48;;;12.00;99.90;;;;;;5055396;28;20018;-80
2022/04/26 07:32:10;;;;;;;28.23;16.20;;;11.90;99.90;;;;;;5050457;28;20424;-82
2022/04/26 07:34:36;;;;;;;31.77;16.38;;;11.90;99.90;;;;;;5027797;28;20036;-83
2022/04/26 07:37:08;;;;;;;30.73;16.40;;;11.80;99.90;;;;;;5044607;28;20051;-84
2022/04/26 07:39:35;;;;;;;26.85;15.23;;;11.80;99.90;;;;;;5027081;28;20477;-80
2022/04/26 07:42:02;;;;;;;26.42;16.33;;;11.90;99.90;;;;;;5044637;28;20033;-82
2022/04/26 07:44:29;;;;;;;27.98;16.10;;;12.00;99.90;;;;;;5044835;28;20033;-84
2022/04/26 07:46:55;;;;;;;26.02;16.25;;;12.00;99.90;;;;;;5049273;28;20028;-82
2022/04/26 07:49:26;;;;;;;27.92;15.90;;;12.10;99.90;;;;;;5051016;28;20066;-81
2022/04/26 07:51:52;;;;;;;27.35;16.38;;;12.10;99.90;;;;;;5045484;28;20538;-82
2022/04/26 07:54:18;;;;;;;24.58;15.15;;;12.10;99.90;;;;;;5046117;28;20509;-82
2022/04/26 07:56:45;;;;;;;29.63;16.42;;;12.10;99.90;;;;;;5054643;28;20045;-81
2022/04/26 07:59:12;;;;;;;30.65;16.88;;;12.20;99.90;;;;;;5047395;28;20139;-84
2022/04/26 08:01:38;;;;;;;27.65;16.55;;;12.20;99.90;;;;;;5059543;28;20043;-83
2022/04/26 08:04:04;;;;;;;28.95;16.15;;;12.20;99.90;;;;;;5045564;28;20076;-83
2022/04/26 08:06:30;;;;;;;28.17;16.67;;;12.30;99.90;;;;;;5039070;28;20056;-81
2022/04/26 08:08:58;;;;;;;28.85;16.25;;;12.30;99.90;;;;;;5038921;28;20025;-83
2022/04/26 08:11:28;;;;;;;29.38;16.67;;;12.20;99.90;;;;;;5024018;28;20074;-81
2022/04/26 08:13:54;;;;;;;26.75;15.73;;;12.20;99.90;;;;;;5064944;28;20040;-81
2022/04/26 08:16:20;;;;;;;28.95;16.85;;;12.20;99.90;;;;;;5060270;28;20040;-83
2022/04/26 08:18:45;;;;;;;31.27;17.52;;;12.30;99.90;;;;;;5059856;28;20025;-81
2022/04/26 08:21:14;;;;;;;27.05;15.98;;;12.30;99.90;;;;;;5059074;28;20480;-81
2022/04/26 08:29:09;;;;;;;25.57;15.57;;;12.30;99.90;;;;;;5043625;28;20029;-79
2022/04/26 08:31:36;;;;;;;31.98;16.50;;;12.30;99.90;;;;;;5038058;28;20096;-81
2022/04/26 08:34:02;;;;;;;29.25;17.08;;;12.40;99.90;;;;;;5020372;28;20029;-82
2022/04/26 08:36:28;;;;;;;26.33;15.85;;;12.30;99.90;;;;;;5038761;28;20014;-83
2022/04/26 08:38:54;;;;;;;32.25;17.23;;;12.30;99.90;;;;;;5027074;28;20054;-85
2022/04/26 08:41:20;;;;;;;30.55;16.63;;;12.30;99.90;;;;;;5014485;28;20025;-84
2022/04/26 08:43:47;;;;;;;28.08;15.65;;;12.20;99.90;;;;;;5012619;28;20037;-83
2022/04/26 08:46:13;;;;;;;28.13;15.18;;;12.10;99.90;;;;;;5011754;28;20524;-81
2022/04/26 08:51:24;;;;;;;33.15;15.70;;;12.10;99.90;;;;;;5038753;28;20032;-85
2022/04/26 08:53:50;;;;;;;26.80;14.45;;;12.20;99.90;;;;;;5037450;28;20037;-85
2022/04/26 08:56:17;;;;;;;24.02;14.68;;;12.20;99.90;;;;;;5074831;28;20021;-84
2022/04/26 08:58:43;;;;;;;27.42;15.50;;;12.30;99.90;;;;;;5049467;28;20021;-85
2022/04/26 09:01:18;;;;;;;27.42;16.05;;;12.40;99.90;;;;;;5039573;28;20033;-82
2022/04/26 09:03:56;;;;;;;24.42;15.90;;;12.40;99.90;;;;;;5023273;28;20036;-82
2022/04/26 09:06:39;;;;;;;27.70;16.40;;;12.50;99.90;;;;;;5054808;28;20067;-82
2022/04/26 09:09:18;;;;;;;28.15;15.98;;;12.50;99.90;;;;;;5071791;28;20063;-80
2022/04/26 09:11:45;;;;;;;31.02;16.92;;;12.50;99.90;;;;;;5069619;28;20025;-85
2022/04/26 09:14:35;;;;;;;30.42;17.27;;;12.40;99.90;;;;;;5071505;28;20037;-84
2022/04/26 09:17:08;;;;;;;27.10;16.30;;;12.30;99.90;;;;;;5075604;28;20059;-84
2022/04/26 09:19:47;;;;;;;29.75;17.00;;;12.30;99.90;;;;;;5077871;28;20024;-84
2022/04/26 09:22:21;;;;;;;28.05;15.90;;;12.40;99.90;;;;;;5076659;28;20150;-82
2022/04/26 09:25:04;;;;;;;28.25;16.50;;;12.60;99.90;;;;;;5050238;28;20033;-81
2022/04/26 09:27:30;;;;;;;31.52;15.20;;;12.70;99.90;;;;;;5043420;28;20029;-79
2022/04/26 09:29:56;;;;;;;28.08;16.00;;;12.80;99.90;;;;;;5043284;28;20044;-82
2022/04/26 09:32:25;;;;;;;33.03;17.05;;;12.80;99.90;;;;;;5048311;28;20029;-83
2022/04/26 09:34:51;;;;;;;23.88;14.90;;;12.90;99.90;;;;;;5055046;28;20101;-82
2022/04/26 09:37:17;;;;;;;25.73;14.95;;;12.90;99.90;;;;;;5053418;28;20478;-80
2022/04/26 09:40:00;;;;;;;24.60;15.73;;;13.10;99.90;;;;;;5056100;28;20029;-81
2022/04/26 09:42:34;;;;;;;30.42;14.68;;;13.20;99.90;;;;;;5054809;28;20033;-81
2022/04/26 09:45:08;;;;;;;28.88;14.38;;;13.10;99.90;;;;;;5055805;28;20100;-80
2022/04/26 09:47:38;;;;;;;24.67;13.93;;;13.20;99.90;;;;;;5031163;28;20058;-81
2022/04/26 09:50:12;;;;;;;21.35;13.43;;;13.20;99.90;;;;;;5041585;28;20030;-80
2022/04/26 09:52:38;;;;;;;21.85;13.18;;;13.30;99.90;;;;;;5025725;28;20087;-83
2022/04/26 09:55:05;;;;;;;25.83;13.98;;;13.30;99.90;;;;;;5034083;28;20600;-83
2022/04/26 09:57:33;;;;;;;26.00;14.10;;;13.20;99.90;;;;;;5042863;28;20022;-83
2022/04/26 10:00:00;;;;;;;23.65;14.02;;;13.20;99.90;;;;;;5024442;28;20025;-82
2022/04/26 10:02:35;;;;;;;25.80;13.20;;;13.20;99.90;;;;;;5043072;28;20029;-83
2022/04/26 10:05:06;;;;;;;22.77;12.65;;;13.30;99.90;;;;;;5026685;28;20056;-82
2022/04/26 10:07:39;;;;;;;19.65;11.98;;;13.40;99.90;;;;;;5060377;28;20060;-80
2022/04/26 10:10:06;;;;;;;19.58;10.90;;;13.40;99.90;;;;;;5026445;28;20379;-82
2022/04/26 10:12:33;;;;;;;17.13;11.02;;;13.50;99.90;;;;;;5025123;28;20036;-82
2022/04/26 10:15:04;;;;;;;19.15;11.43;;;13.50;99.90;;;;;;5043986;28;20029;-81
2022/04/26 10:17:32;;;;;;;17.05;10.93;;;13.50;99.90;;;;;;5034671;28;20034;-82
2022/04/26 10:20:03;;;;;;;18.13;12.20;;;13.40;99.90;;;;;;5046542;28;20041;-83
2022/04/26 10:22:56;;;;;;;26.52;12.80;;;13.30;99.90;;;;;;5013420;28;20085;-86
2022/04/26 10:25:23;;;;;;;18.80;11.65;;;13.20;99.90;;;;;;5041756;28;20045;-83
2022/04/26 10:28:28;;;;;;;17.55;11.25;;;13.10;99.90;;;;;;5043634;28;20099;-83
2022/04/26 10:30:57;;;;;;;17.13;10.60;;;13.20;99.90;;;;;;5042913;28;20041;-83
2022/04/26 10:33:36;;;;;;;22.75;11.65;;;13.40;99.90;;;;;;5049581;28;20038;-82
2022/04/26 10:36:21;;;;;;;19.17;11.57;;;13.70;99.90;;;;;;5050584;28;20034;-83
2022/04/26 10:39:05;;;;;;;16.70;10.23;;;13.90;99.90;;;;;;5026839;28;20032;-83
2022/04/26 10:41:37;;;;;;;17.08;11.13;;;13.80;99.90;;;;;;5049829;28;20040;-82
2022/04/26 10:44:16;;;;;;;18.20;10.05;;;13.80;99.90;;;;;;5032543;28;20029;-82
2022/04/26 10:46:45;;;;;;;18.50;10.82;;;13.80;99.90;;;;;;5050876;28;20033;-85
2022/04/26 10:49:22;;;;;;;19.90;11.27;;;13.60;99.90;;;;;;5045385;28;20126;-83
2022/04/26 10:51:48;;;;;;;15.57;10.85;;;13.60;99.90;;;;;;5042902;28;20037;-82
2022/04/26 10:54:14;;;;;;;20.08;11.15;;;13.60;99.90;;;;;;5052161;28;20047;-81
2022/04/26 10:56:40;;;;;;;18.75;11.45;;;13.60;99.90;;;;;;5063988;28;20017;-81
2022/04/26 10:59:13;;;;;;;16.95;10.85;;;13.70;99.90;;;;;;5075341;28;20025;-81
2022/04/26 11:01:39;;;;;;;19.67;11.63;;;13.80;99.90;;;;;;5051205;28;20092;-81
2022/04/26 11:04:05;;;;;;;16.20;10.52;;;13.90;99.90;;;;;;5037655;28;20052;-82
2022/04/26 11:06:39;;;;;;;19.83;11.93;;;13.80;99.90;;;;;;5058174;28;20025;-80
2022/04/26 11:09:14;;;;;;;19.25;11.73;;;13.80;99.90;;;;;;5062686;28;20104;-81
2022/04/26 11:11:50;;;;;;;17.13;10.15;;;14.00;99.90;;;;;;5042504;28;20043;-80
2022/04/26 11:14:20;;;;;;;15.82;10.90;;;14.30;99.90;;;;;;5064097;28;20029;-81
2022/04/26 11:16:55;;;;;;;17.67;10.48;;;14.60;99.90;;;;;;5074601;28;20021;-80
2022/04/26 11:19:25;;;;;;;;;;;15.10;99.90;;;;;;5051639;28;20127;-82
2022/04/26 11:21:50;;;;;;;17.33;10.63;;;15.40;99.90;;;;;;5060153;28;19920;-82
2022/04/26 11:29:53;;;;;;;14.27;9.63;;;16.80;99.90;;;;;;5059494;28;20034;-83
2022/04/26 11:32:38;;;;;;;14.52;9.07;;;17.40;99.70;;;;;;5037310;28;20025;-84
2022/04/26 11:35:04;;;;;;;;;;;17.60;99.00;;;;;;5050649;28;20155;-83
2022/04/26 11:37:30;;;;;;;12.70;8.00;;;18.40;97.70;;;;;;5049216;28;19943;-84
2022/04/26 11:39:55;;;;;;;14.73;7.55;;;18.90;96.30;;;;;;5044676;28;20057;-82
2022/04/26 11:42:21;;;;;;;12.02;8.00;;;19.30;95.60;;;;;;5068079;28;20025;-81
2022/04/26 11:45:21;;;;;;;8.77;6.28;;;20.40;94.40;;;;;;5065433;28;20021;-81
2022/04/26 11:47:50;;;;;;;7.82;5.18;;;21.80;90.50;;;;;;5002471;28;20044;-81
2022/04/26 11:50:22;;;;;;;8.20;5.28;;;22.40;86.50;;;;;;5072658;28;20025;-82
2022/04/26 11:52:50;;;;;;;6.60;4.47;;;23.20;82.60;;;;;;5038725;28;20037;-81
2022/04/26 11:55:23;;;;;;;7.38;4.45;;;23.80;78.40;;;;;;5061450;28;20032;-81
2022/04/26 11:57:49;;;;;;;10.20;7.47;;;24.60;74.80;;;;;;5062293;28;20029;-80
2022/04/26 12:00:18;;;;;;;10.05;6.75;;;24.40;74.60;;;;;;5057957;28;20092;-80
2022/04/26 12:02:48;;;;;;;10.13;6.82;;;23.90;75.40;;;;;;5059381;28;20029;-81
2022/04/26 12:05:21;;;;;;;10.15;7.00;;;24.10;74.30;;;;;;5032171;28;20061;-82
2022/04/26 12:07:49;;;;;;;10.32;7.13;;;24.40;74.00;;;;;;5029028;28;20037;-82
2022/04/26 12:10:47;;;;;;;11.15;7.30;;;24.20;74.30;;;;;;5012390;28;20028;-83
2022/04/26 12:13:14;;;;;;;11.55;7.47;;;23.50;74.70;;;;;;5019333;28;20053;-82
2022/04/26 12:15:40;;;;;;;9.02;6.22;;;22.70;75.60;;;;;;5053613;28;20021;-83
2022/04/26 12:18:13;;;;;;;9.25;5.80;;;22.70;74.60;;;;;;5059304;28;20025;-83
2022/04/26 12:21:02;;;;;;;8.43;5.57;;;23.60;74.00;;;;;;5041684;28;20192;-83
2022/04/26 12:23:31;;;;;;;10.05;5.78;;;24.60;71.80;;;;;;5050298;28;20036;-81
2022/04/26 12:26:01;;;;;;;8.90;5.20;;;24.90;70.70;;;;;;5038859;28;20080;-81
2022/04/26 12:28:27;;;;;;;7.70;5.63;;;25.80;68.70;;;;;;5050368;28;20029;-83
2022/04/26 12:30:55;;;;;;;9.20;5.47;;;26.80;66.40;;;;;;5074481;22;20091;-85
2022/04/26 12:33:34;;;;;;;9.63;5.45;;;26.80;65.00;;;;;;5085351;28;20020;-87
2022/04/26 12:36:04;;;;;;;8.15;5.90;;;27.00;64.90;;;;;;5079525;28;20012;-86
2022/04/26 12:38:44;;;;;;;8.88;5.57;;;27.00;64.30;;;;;;5086144;28;20017;-86
2022/04/26 12:41:09;;;;;;;7.30;5.65;;;26.90;63.80;;;;;;5061759;28;20021;-86
2022/04/26 12:43:35;;;;;;;8.25;6.25;;;26.90;63.80;;;;;;5069520;28;20046;-86
2022/04/26 12:46:03;;;;;;;8.30;5.72;;;27.00;63.80;;;;;;5082230;28;20437;-85
2022/04/26 12:51:28;;;;;;;8.70;5.68;;;27.10;62.30;;;;;;5074763;28;20036;-86
2022/04/26 12:54:07;;;;;;;10.95;6.18;;;27.50;62.20;;;;;;5096159;28;20033;-86
2022/04/26 12:56:33;;;;;;;7.88;5.40;;;27.60;61.40;;;;;;5084186;28;20074;-85
2022/04/26 12:58:59;;;;;;;10.80;5.70;;;27.70;61.10;;;;;;5075821;28;20028;-88
2022/04/26 13:01:25;;;;;;;8.93;6.10;;;28.40;60.60;;;;;;5055126;28;20028;-86
2022/04/26 13:03:50;;;;;;;8.38;5.60;;;28.90;58.40;;;;;;5073527;28;20021;-83
2022/04/26 13:06:18;;;;;;;8.23;5.55;;;28.90;59.20;;;;;;5078208;28;20021;-89
2022/04/26 13:08:46;;;;;;;7.65;5.30;;;28.50;59.10;;;;;;5083300;28;20031;-88
2022/04/26 13:11:17;;;;;;;12.98;5.90;;;29.10;58.50;;;;;;5061121;28;20028;-87
2022/04/26 13:13:46;;;;;;;10.90;5.75;;;30.50;56.70;;;;;;5081514;28;20097;-89
2022/04/26 13:16:12;;;;;;;5.70;4.72;;;30.10;56.50;;;;;;5081521;28;20017;-88
2022/04/26 13:18:38;;;;;;;9.68;5.70;;;29.70;55.80;;;;;;5092145;28;20032;-89
2022/04/26 13:21:05;;;;;;;6.45;4.47;;;28.90;55.40;;;;;;5080328;28;20013;-88
2022/04/26 13:23:34;;;;;;;8.02;4.80;;;28.30;56.10;;;;;;5090317;28;20024;-87
2022/04/26 13:26:00;;;;;;;7.78;5.32;;;27.40;57.00;;;;;;5076199;28;20025;-87
2022/04/26 13:28:26;;;;;;;9.32;5.15;;;26.60;58.00;;;;;;5081472;28;20443;-88
2022/04/26 13:30:53;;;;;;;8.10;4.90;;;26.00;58.70;;;;;;5082570;28;20052;-88
2022/04/26 13:33:18;;;;;;;12.40;5.45;;;25.50;59.50;;;;;;5084428;28;20084;-89
2022/04/26 13:35:44;;;;;;;5.72;4.63;;;25.50;59.80;;;;;;5047266;28;20052;-88
2022/04/26 13:38:12;;;;;;;7.15;4.70;;;25.80;59.20;;;;;;5084869;28;20025;-88
2022/04/26 13:40:39;;;;;;;7.18;5.05;;;26.30;58.00;;;;;;5083764;28;20036;-87
2022/04/26 13:43:06;;;;;;;7.43;5.03;;;26.40;57.60;;;;;;5072992;28;20032;-91
2022/04/26 13:45:33;;;;;;;9.68;4.65;;;26.40;57.50;;;;;;5073309;28;20019;-90
2022/04/26 13:48:08;;;;;;;5.68;4.35;;;25.20;58.30;;;;;;5096182;28;20020;-88
2022/04/26 13:50:34;;;;;;;10.38;4.88;;;24.90;59.20;;;;;;5077897;28;20020;-87
2022/04/26 13:53:00;;;;;;;7.30;4.75;;;24.60;59.50;;;;;;5093365;28;20021;-89
2022/04/26 13:55:26;;;;;;;9.30;4.55;;;23.80;60.10;;;;;;5086727;28;20043;-87
2022/04/26 13:57:55;;;;;;;7.13;5.13;;;23.10;61.90;;;;;;5068045;28;20032;-88
2022/04/26 14:00:21;;;;;;;7.18;5.28;;;22.80;63.20;;;;;;5090007;28;20033;-89
2022/04/26 14:02:48;;;;;;;8.13;5.65;;;23.20;62.80;;;;;;5089490;28;20181;-84
2022/04/26 14:05:20;;;;;;;8.43;5.22;;;23.00;63.40;;;;;;5092984;28;20025;-84
2022/04/26 14:07:46;;;;;;;15.70;5.80;;;23.20;63.40;;;;;;5085699;28;20032;-85
2022/04/26 14:10:13;;;;;;;9.18;5.72;;;23.90;63.30;;;;;;5064179;28;20082;-88
2022/04/26 14:12:41;;;;;;;7.60;5.20;;;25.00;61.80;;;;;;5065799;28;20071;-87
2022/04/26 14:23:21;;;;;;;7.30;5.47;;;27.50;58.80;;;;;;5099157;28;20048;-88
2022/04/26 14:25:46;;;;;;;9.18;5.70;;;27.30;58.90;;;;;;5097552;28;20028;-85
2022/04/26 14:28:12;;;;;;;7.55;5.32;;;27.10;58.90;;;;;;5103560;28;20028;-84
2022/04/26 14:30:38;;;;;;;7.95;5.35;;;27.00;59.30;;;;;;5091159;28;20020;-86
2022/04/26 14:33:05;;;;;;;8.57;5.75;;;27.10;59.00;;;;;;5095233;28;20016;-88
2022/04/26 14:35:32;;;;;;;6.18;5.00;;;27.00;59.20;;;;;;5086375;28;20448;-89
2022/04/26 14:37:59;;;;;;;9.63;5.80;;;27.20;59.00;;;;;;5092992;28;20032;-87
2022/04/26 14:40:25;;;;;;;8.25;6.18;;;27.50;58.90;;;;;;5107501;28;20028;-86
2022/04/26 14:42:50;;;;;;;6.97;5.70;;;27.70;58.40;;;;;;5078528;28;20027;-87
2022/04/26 14:45:16;;;;;;;9.18;5.90;;;28.40;58.30;;;;;;5094146;28;20020;-87
2022/04/26 14:47:42;;;;;;;10.70;6.28;;;28.80;57.50;;;;;;5077634;28;20112;-87
2022/04/26 14:50:09;;;;;;;10.15;6.35;;;28.70;57.50;;;;;;5104832;28;20138;-87
2022/04/26 14:52:36;;;;;;;11.20;6.40;;;28.90;57.30;;;;;;5085069;28;20024;-85
2022/04/26 14:55:05;;;;;;;8.60;6.68;;;29.00;57.20;;;;;;5087349;28;20044;-86
2022/04/26 14:57:30;;;;;;;8.02;6.40;;;29.10;56.80;;;;;;5090687;28;20044;-87
2022/04/26 14:59:57;;;;;;;10.30;6.72;;;29.30;56.70;;;;;;5079076;28;20455;-87
2022/04/26 15:02:23;;;;;;;9.27;6.55;;;29.70;56.40;;;;;;5081010;28;20110;-85
2022/04/26 15:04:49;;;;;;;7.82;6.28;;;30.30;56.50;;;;;;5099296;28;20022;-87
2022/04/26 15:07:15;;;;;;;8.80;6.20;;;30.60;55.20;;;;;;5094513;28;20119;-86
2022/04/26 15:09:45;;;;;;;9.30;6.88;;;30.80;55.30;;;;;;5092238;28;20025;-87
2022/04/26 15:17:42;;;;;;;10.05;7.60;;;29.00;56.80;;;;;;5088701;28;20035;-86
2022/04/26 15:20:10;;;;;;;9.98;7.43;;;28.20;57.20;;;;;;5072108;28;20036;-88
2022/04/26 15:22:39;;;;;;;12.38;7.55;;;28.20;57.40;;;;;;5068003;28;20122;-87
2022/04/26 15:25:06;;;;;;;8.73;6.95;;;27.20;57.80;;;;;;5087309;28;20029;-85
2022/04/26 15:27:38;;;;;;;9.55;7.57;;;25.90;59.70;;;;;;5073280;28;20459;-84
2022/04/26 15:30:08;;;;;;;11.02;8.13;;;24.80;61.30;;;;;;5077268;28;20028;-86
2022/04/26 15:32:35;;;;;;;15.90;10.00;;;23.50;64.30;;;;;;5080269;28;20048;-85
2022/04/26 15:35:01;;;;;;;12.65;8.75;;;22.30;65.40;;;;;;5082934;28;20033;-84
2022/04/26 15:37:28;;;;;;;13.07;8.80;;;21.80;67.10;;;;;;5107785;28;20032;-85
2022/04/26 15:39:54;;;;;;;15.48;8.65;;;21.10;68.40;;;;;;5077408;28;20024;-87
2022/04/26 15:42:21;;;;;;;16.50;8.70;;;20.70;69.20;;;;;;5082614;28;20024;-88
2022/04/26 15:44:48;;;;;;;13.40;8.32;;;20.30;69.80;;;;;;5104336;28;20024;-83
2022/04/26 15:47:14;;;;;;;16.88;8.68;;;20.00;70.80;;;;;;5115522;28;20020;-84
2022/04/26 15:49:40;;;;;;;13.90;9.18;;;19.50;71.80;;;;;;5096523;28;20088;-84
2022/04/26 15:52:07;;;;;;;16.20;9.55;;;19.00;73.30;;;;;;5109913;28;20062;-86
2022/04/26 15:54:36;;;;;;;15.90;9.20;;;18.80;73.90;;;;;;5086776;28;20036;-86
2022/04/26 15:57:03;;;;;;;16.17;9.30;;;18.80;74.10;;;;;;5113215;28;20016;-84
2022/04/26 15:59:29;;;;;;;13.95;8.70;;;18.60;74.70;;;;;;5111533;28;20020;-81
2022/04/26 16:01:55;;;;;;;13.57;8.85;;;18.60;75.20;;;;;;5096465;28;20024;-81
2022/04/26 16:04:22;;;;;;;15.10;9.25;;;18.40;75.80;;;;;;5096818;28;20046;-89
2022/04/26 16:06:48;;;;;;;12.73;8.70;;;18.20;76.20;;;;;;5094528;28;20032;-86
2022/04/26 16:20:29;;;;;;;14.82;9.40;;;17.90;77.70;;;;;;5064712;28;20052;-84
2022/04/26 16:22:56;;;;;;;14.30;8.68;;;17.80;78.30;;;;;;5084093;28;20024;-87
2022/04/26 16:25:22;;;;;;;17.52;9.73;;;17.60;78.80;;;;;;5095370;28;20123;-85
2022/04/26 16:27:51;;;;;;;15.63;9.05;;;17.50;79.40;;;;;;5100087;28;20063;-87
2022/04/26 16:30:17;;;;;;;18.25;9.35;;;17.40;80.00;;;;;;5096357;28;20035;-84
2022/04/26 16:32:44;;;;;;;16.80;9.13;;;17.40;80.40;;;;;;5075904;28;20040;-85
2022/04/26 16:35:13;;;;;;;13.55;8.82;;;17.30;80.70;;;;;;5087629;28;20081;-87
2022/04/26 16:37:39;;;;;;;13.35;9.13;;;17.20;81.30;;;;;;5081035;28;20115;-86
2022/04/26 16:40:08;;;;;;;16.40;9.38;;;17.10;81.80;;;;;;5083797;28;20025;-85
2022/04/26 16:42:37;;;;;;;13.85;9.02;;;16.90;82.70;;;;;;5095094;28;20024;-88
2022/04/26 16:45:03;;;;;;;15.65;9.13;;;16.70;83.80;;;;;;5094746;28;20552;-87
2022/04/26 16:47:29;;;;;;;15.32;8.88;;;16.50;84.70;;;;;;5093111;28;20027;-87
2022/04/26 16:49:55;;;;;;;15.55;9.48;;;16.40;85.20;;;;;;5096865;28;20475;-85
2022/04/26 16:52:21;;;;;;;17.88;9.50;;;16.40;85.80;;;;;;5079745;28;20035;-86
2022/04/26 16:54:46;;;;;;;14.00;8.80;;;16.30;86.20;;;;;;5087684;28;20021;-85
2022/04/26 16:57:12;;;;;;;15.35;9.05;;;16.30;86.80;;;;;;5079976;28;20043;-86
2022/04/26 16:59:38;;;;;;;13.13;8.23;;;16.30;86.90;;;;;;5074144;28;20036;-86
2022/04/26 17:02:04;;;;;;;18.92;8.50;;;16.20;87.20;;;;;;5096279;28;20024;-85